sensor_id;sensor_type;location;lat;lon;timestamp;P1;durP1;ratioP1;P2;durP2;ratioP2
12306;SDS011;6216;51.146;7.008;2024-03-23T00:52:25;8.57;;;3.63;;
12306;SDS011;6216;51.146;7.008;2024-03-23T00:57:47;10.33;;;3.33;;
12306;SDS011;6216;51.146;7.008;2024-03-23T01:03:08;7.93;;;3.30;;
12306;SDS011;6216;51.146;7.008;2024-03-23T01:08:31;7.37;;;2.70;;
12306;SDS011;6216;51.146;7.008;2024-03-23T01:13:53;5.43;;;2.50;;
12306;SDS011;6216;51.146;7.008;2024-03-23T01:19:15;10.77;;;2.57;;
12306;SDS011;6216;51.146;7.008;2024-03-23T01:24:38;9.33;;;2.50;;
12306;SDS011;6216;51.146;7.008;2024-03-23T01:29:59;5.33;;;2.10;;
12306;SDS011;6216;51.146;7.008;2024-03-23T01:35:21;7.23;;;2.50;;
12306;SDS011;6216;51.146;7.008;2024-03-23T01:40:44;9.07;;;2.93;;
12306;SDS011;6216;51.146;7.008;2024-03-23T01:46:06;6.83;;;3.03;;
12306;SDS011;6216;51.146;7.008;2024-03-23T01:51:28;13.67;;;2.90;;
12306;SDS011;6216;51.146;7.008;2024-03-23T01:56:51;7.73;;;2.60;;
12306;SDS011;6216;51.146;7.008;2024-03-23T02:02:13;7.57;;;2.60;;
12306;SDS011;6216;51.146;7.008;2024-03-23T02:07:35;11.33;;;3.10;;
12306;SDS011;6216;51.146;7.008;2024-03-23T02:12:58;9.70;;;3.27;;
12306;SDS011;6216;51.146;7.008;2024-03-23T02:18:19;8.00;;;2.73;;
12306;SDS011;6216;51.146;7.008;2024-03-23T02:23:42;7.03;;;2.60;;
12306;SDS011;6216;51.146;7.008;2024-03-23T02:29:04;7.27;;;2.67;;
12306;SDS011;6216;51.146;7.008;2024-03-23T02:34:25;5.87;;;2.57;;
12306;SDS011;6216;51.146;7.008;2024-03-23T02:39:48;5.97;;;2.47;;
12306;SDS011;6216;51.146;7.008;2024-03-23T02:45:10;9.23;;;2.53;;
12306;SDS011;6216;51.146;7.008;2024-03-23T02:50:32;11.60;;;2.70;;
12306;SDS011;6216;51.146;7.008;2024-03-23T02:55:57;6.93;;;2.40;;
12306;SDS011;6216;51.146;7.008;2024-03-23T03:01:18;8.50;;;2.70;;
12306;SDS011;6216;51.146;7.008;2024-03-23T03:06:40;6.77;;;2.20;;
12306;SDS011;6216;51.146;7.008;2024-03-23T03:12:03;6.27;;;2.60;;
12306;SDS011;6216;51.146;7.008;2024-03-23T03:17:24;6.10;;;2.53;;
12306;SDS011;6216;51.146;7.008;2024-03-23T03:22:46;8.27;;;3.13;;
12306;SDS011;6216;51.146;7.008;2024-03-23T03:28:09;6.53;;;2.80;;
12306;SDS011;6216;51.146;7.008;2024-03-23T03:33:31;8.17;;;2.67;;
12306;SDS011;6216;51.146;7.008;2024-03-23T03:38:52;6.57;;;2.27;;
12306;SDS011;6216;51.146;7.008;2024-03-23T03:44:15;6.17;;;3.07;;
12306;SDS011;6216;51.146;7.008;2024-03-23T03:49:37;5.40;;;2.60;;
12306;SDS011;6216;51.146;7.008;2024-03-23T03:55:01;7.27;;;2.47;;
12306;SDS011;6216;51.146;7.008;2024-03-23T04:00:24;4.60;;;2.80;;
12306;SDS011;6216;51.146;7.008;2024-03-23T04:05:49;6.17;;;2.70;;
12306;SDS011;6216;51.146;7.008;2024-03-23T04:11:11;7.07;;;2.87;;
12306;SDS011;6216;51.146;7.008;2024-03-23T04:16:34;6.70;;;2.20;;
12306;SDS011;6216;51.146;7.008;2024-03-23T04:21:56;5.57;;;2.20;;
12306;SDS011;6216;51.146;7.008;2024-03-23T04:27:18;6.23;;;2.50;;
12306;SDS011;6216;51.146;7.008;2024-03-23T04:32:41;5.80;;;2.53;;
12306;SDS011;6216;51.146;7.008;2024-03-23T04:38:02;8.87;;;2.70;;
12306;SDS011;6216;51.146;7.008;2024-03-23T04:43:24;8.17;;;2.53;;
12306;SDS011;6216;51.146;7.008;2024-03-23T04:48:47;11.20;;;2.40;;
12306;SDS011;6216;51.146;7.008;2024-03-23T04:54:09;5.10;;;1.90;;
12306;SDS011;6216;51.146;7.008;2024-03-23T04:59:31;9.60;;;2.47;;
12306;SDS011;6216;51.146;7.008;2024-03-23T05:04:53;6.00;;;2.10;;
12306;SDS011;6216;51.146;7.008;2024-03-23T05:10:15;8.20;;;2.30;;
12306;SDS011;6216;51.146;7.008;2024-03-23T05:15:37;10.87;;;2.23;;
12306;SDS011;6216;51.146;7.008;2024-03-23T05:21:00;3.30;;;1.50;;
12306;SDS011;6216;51.146;7.008;2024-03-23T05:26:21;9.10;;;2.30;;
12306;SDS011;6216;51.146;7.008;2024-03-23T05:31:43;7.73;;;1.93;;
12306;SDS011;6216;51.146;7.008;2024-03-23T05:37:06;13.33;;;2.23;;
12306;SDS011;6216;51.146;7.008;2024-03-23T05:42:28;8.03;;;2.40;;
12306;SDS011;6216;51.146;7.008;2024-03-23T05:47:50;6.77;;;2.03;;
12306;SDS011;6216;51.146;7.008;2024-03-23T05:53:13;8.50;;;2.30;;
12306;SDS011;6216;51.146;7.008;2024-03-23T05:58:35;5.90;;;2.13;;
12306;SDS011;6216;51.146;7.008;2024-03-23T06:03:57;6.60;;;2.10;;
12306;SDS011;6216;51.146;7.008;2024-03-23T06:09:22;10.03;;;2.80;;
12306;SDS011;6216;51.146;7.008;2024-03-23T06:14:44;10.07;;;2.80;;
12306;SDS011;6216;51.146;7.008;2024-03-23T06:20:06;8.13;;;2.53;;
12306;SDS011;6216;51.146;7.008;2024-03-23T06:25:29;7.23;;;2.40;;
12306;SDS011;6216;51.146;7.008;2024-03-23T06:30:51;7.80;;;2.80;;
12306;SDS011;6216;51.146;7.008;2024-03-23T06:36:13;15.73;;;3.07;;
12306;SDS011;6216;51.146;7.008;2024-03-23T06:41:37;11.80;;;3.50;;
12306;SDS011;6216;51.146;7.008;2024-03-23T06:46:58;11.70;;;2.80;;
12306;SDS011;6216;51.146;7.008;2024-03-23T06:52:20;6.97;;;2.20;;
12306;SDS011;6216;51.146;7.008;2024-03-23T06:57:43;11.03;;;2.90;;
12306;SDS011;6216;51.146;7.008;2024-03-23T07:03:04;13.37;;;3.00;;
12306;SDS011;6216;51.146;7.008;2024-03-23T07:08:27;6.77;;;2.70;;
12306;SDS011;6216;51.146;7.008;2024-03-23T07:13:51;6.67;;;2.80;;
12306;SDS011;6216;51.146;7.008;2024-03-23T07:19:12;6.80;;;3.10;;
12306;SDS011;6216;51.146;7.008;2024-03-23T07:24:36;8.13;;;3.17;;
12306;SDS011;6216;51.146;7.008;2024-03-23T07:30:01;8.43;;;3.70;;
12306;SDS011;6216;51.146;7.008;2024-03-23T07:35:22;13.97;;;3.50;;
12306;SDS011;6216;51.146;7.008;2024-03-23T07:40:44;10.77;;;3.70;;
12306;SDS011;6216;51.146;7.008;2024-03-23T07:46:08;8.20;;;3.50;;
12306;SDS011;6216;51.146;7.008;2024-03-23T07:51:30;8.57;;;3.23;;
12306;SDS011;6216;51.146;7.008;2024-03-23T07:56:51;9.97;;;3.20;;
12306;SDS011;6216;51.146;7.008;2024-03-23T08:02:14;9.40;;;3.50;;
12306;SDS011;6216;51.146;7.008;2024-03-23T08:07:36;7.27;;;3.27;;
12306;SDS011;6216;51.146;7.008;2024-03-23T08:12:57;8.60;;;3.60;;
12306;SDS011;6216;51.146;7.008;2024-03-23T08:18:20;12.27;;;4.67;;
12306;SDS011;6216;51.146;7.008;2024-03-23T08:23:42;9.13;;;4.30;;
12306;SDS011;6216;51.146;7.008;2024-03-23T08:29:03;10.67;;;3.60;;
12306;SDS011;6216;51.146;7.008;2024-03-23T08:34:27;7.93;;;3.63;;
12306;SDS011;6216;51.146;7.008;2024-03-23T08:39:48;10.93;;;3.97;;
12306;SDS011;6216;51.146;7.008;2024-03-23T08:45:12;11.63;;;3.30;;
12306;SDS011;6216;51.146;7.008;2024-03-23T08:50:35;7.37;;;2.80;;
12306;SDS011;6216;51.146;7.008;2024-03-23T08:55:56;7.53;;;2.43;;
12306;SDS011;6216;51.146;7.008;2024-03-23T09:01:18;5.97;;;2.60;;
12306;SDS011;6216;51.146;7.008;2024-03-23T09:06:43;8.77;;;2.83;;
12306;SDS011;6216;51.146;7.008;2024-03-23T09:12:05;5.80;;;2.40;;
12306;SDS011;6216;51.146;7.008;2024-03-23T09:17:26;8.10;;;2.53;;
12306;SDS011;6216;51.146;7.008;2024-03-23T09:22:50;5.20;;;2.37;;
12306;SDS011;6216;51.146;7.008;2024-03-23T09:28:11;6.97;;;2.03;;
12306;SDS011;6216;51.146;7.008;2024-03-23T09:33:33;11.53;;;2.43;;
12306;SDS011;6216;51.146;7.008;2024-03-23T09:38:56;3.47;;;1.23;;
12306;SDS011;6216;51.146;7.008;2024-03-23T09:44:19;3.73;;;1.40;;
12306;SDS011;6216;51.146;7.008;2024-03-23T09:49:41;7.70;;;1.97;;
12306;SDS011;6216;51.146;7.008;2024-03-23T09:55:05;5.30;;;1.90;;
12306;SDS011;6216;51.146;7.008;2024-03-23T10:00:27;4.37;;;1.60;;
12306;SDS011;6216;51.146;7.008;2024-03-23T10:05:58;3.80;;;1.90;;
12306;SDS011;6216;51.146;7.008;2024-03-23T10:11:23;6.90;;;1.70;;
12306;SDS011;6216;51.146;7.008;2024-03-23T10:16:46;6.53;;;1.70;;
12306;SDS011;6216;51.146;7.008;2024-03-23T10:22:09;5.47;;;2.43;;
12306;SDS011;6216;51.146;7.008;2024-03-23T10:27:32;5.47;;;1.50;;
12306;SDS011;6216;51.146;7.008;2024-03-23T10:33:01;5.83;;;1.40;;
12306;SDS011;6216;51.146;7.008;2024-03-23T10:38:27;1.97;;;1.10;;
12306;SDS011;6216;51.146;7.008;2024-03-23T10:43:52;4.53;;;1.53;;
12306;SDS011;6216;51.146;7.008;2024-03-23T10:49:15;6.23;;;1.83;;
12306;SDS011;6216;51.146;7.008;2024-03-23T10:54:36;6.90;;;1.57;;
12306;SDS011;6216;51.146;7.008;2024-03-23T11:00:01;1.63;;;0.87;;
12306;SDS011;6216;51.146;7.008;2024-03-23T11:05:29;3.00;;;0.97;;
12306;SDS011;6216;51.146;7.008;2024-03-23T11:10:51;1.77;;;0.63;;
12306;SDS011;6216;51.146;7.008;2024-03-23T11:16:15;2.70;;;1.30;;
12306;SDS011;6216;51.146;7.008;2024-03-23T11:21:52;0.93;;;0.50;;
12306;SDS011;6216;51.146;7.008;2024-03-23T11:27:15;1.20;;;0.50;;
12306;SDS011;6216;51.146;7.008;2024-03-23T11:32:38;0.87;;;0.50;;
12306;SDS011;6216;51.146;7.008;2024-03-23T11:38:04;0.60;;;0.30;;
12306;SDS011;6216;51.146;7.008;2024-03-23T11:43:25;0.40;;;0.30;;
12306;SDS011;6216;51.146;7.008;2024-03-23T11:48:50;0.33;;;0.33;;
12306;SDS011;6216;51.146;7.008;2024-03-23T11:54:12;2.73;;;1.60;;
12306;SDS011;6216;51.146;7.008;2024-03-23T11:59:34;2.73;;;0.93;;
12306;SDS011;6216;51.146;7.008;2024-03-23T12:04:58;2.40;;;0.90;;
12306;SDS011;6216;51.146;7.008;2024-03-23T12:10:20;4.57;;;0.93;;
12306;SDS011;6216;51.146;7.008;2024-03-23T12:15:41;3.63;;;1.17;;
12306;SDS011;6216;51.146;7.008;2024-03-23T12:21:04;2.10;;;0.53;;
12306;SDS011;6216;51.146;7.008;2024-03-23T12:26:26;2.43;;;0.70;;
12306;SDS011;6216;51.146;7.008;2024-03-23T12:31:47;2.00;;;1.00;;
12306;SDS011;6216;51.146;7.008;2024-03-23T12:37:10;0.97;;;0.57;;
12306;SDS011;6216;51.146;7.008;2024-03-23T12:42:32;1.07;;;0.60;;
12306;SDS011;6216;51.146;7.008;2024-03-23T12:47:54;2.17;;;0.60;;
12306;SDS011;6216;51.146;7.008;2024-03-23T12:53:17;0.80;;;0.70;;
12306;SDS011;6216;51.146;7.008;2024-03-23T12:58:39;0.70;;;0.70;;
12306;SDS011;6216;51.146;7.008;2024-03-23T13:04:00;1.37;;;0.80;;
12306;SDS011;6216;51.146;7.008;2024-03-23T13:09:24;2.00;;;1.00;;
12306;SDS011;6216;51.146;7.008;2024-03-23T13:14:45;1.63;;;0.67;;
12306;SDS011;6216;51.146;7.008;2024-03-23T13:20:07;0.80;;;0.50;;
12306;SDS011;6216;51.146;7.008;2024-03-23T13:25:34;1.60;;;0.70;;
12306;SDS011;6216;51.146;7.008;2024-03-23T13:30:57;2.20;;;0.77;;
12306;SDS011;6216;51.146;7.008;2024-03-23T13:42:03;1.33;;;0.67;;
12306;SDS011;6216;51.146;7.008;2024-03-23T13:47:24;1.60;;;0.50;;
12306;SDS011;6216;51.146;7.008;2024-03-23T13:52:46;0.90;;;0.40;;
12306;SDS011;6216;51.146;7.008;2024-03-23T13:58:09;3.03;;;0.43;;
12306;SDS011;6216;51.146;7.008;2024-03-23T14:03:32;5.07;;;1.03;;
12306;SDS011;6216;51.146;7.008;2024-03-23T14:08:54;1.03;;;0.57;;
12306;SDS011;6216;51.146;7.008;2024-03-23T14:14:17;0.73;;;0.50;;
12306;SDS011;6216;51.146;7.008;2024-03-23T14:19:39;1.83;;;0.73;;
12306;SDS011;6216;51.146;7.008;2024-03-23T14:25:00;3.00;;;0.50;;
12306;SDS011;6216;51.146;7.008;2024-03-23T14:30:23;1.03;;;0.70;;
12306;SDS011;6216;51.146;7.008;2024-03-23T14:35:51;2.30;;;0.70;;
12306;SDS011;6216;51.146;7.008;2024-03-23T14:41:13;1.30;;;0.63;;
12306;SDS011;6216;51.146;7.008;2024-03-23T14:46:36;3.03;;;0.90;;
12306;SDS011;6216;51.146;7.008;2024-03-23T14:51:57;2.70;;;0.83;;
12306;SDS011;6216;51.146;7.008;2024-03-23T14:57:19;2.67;;;0.80;;
12306;SDS011;6216;51.146;7.008;2024-03-23T15:02:41;0.93;;;0.47;;
12306;SDS011;6216;51.146;7.008;2024-03-23T15:08:03;0.93;;;0.53;;
12306;SDS011;6216;51.146;7.008;2024-03-23T15:13:25;0.93;;;0.50;;
12306;SDS011;6216;51.146;7.008;2024-03-23T15:18:48;0.40;;;0.30;;
12306;SDS011;6216;51.146;7.008;2024-03-23T15:24:10;1.00;;;0.60;;
12306;SDS011;6216;51.146;7.008;2024-03-23T15:29:32;0.97;;;0.40;;
12306;SDS011;6216;51.146;7.008;2024-03-23T15:34:55;0.63;;;0.40;;
12306;SDS011;6216;51.146;7.008;2024-03-23T15:40:17;2.73;;;0.60;;
12306;SDS011;6216;51.146;7.008;2024-03-23T15:45:39;0.50;;;0.43;;
12306;SDS011;6216;51.146;7.008;2024-03-23T15:51:02;0.77;;;0.73;;
12306;SDS011;6216;51.146;7.008;2024-03-23T15:56:25;1.23;;;0.70;;
12306;SDS011;6216;51.146;7.008;2024-03-23T16:01:46;2.77;;;0.70;;
12306;SDS011;6216;51.146;7.008;2024-03-23T16:07:09;3.00;;;1.00;;
12306;SDS011;6216;51.146;7.008;2024-03-23T16:12:31;0.87;;;0.70;;
12306;SDS011;6216;51.146;7.008;2024-03-23T16:17:53;1.60;;;0.80;;
12306;SDS011;6216;51.146;7.008;2024-03-23T16:23:16;0.83;;;0.53;;
12306;SDS011;6216;51.146;7.008;2024-03-23T16:28:37;2.17;;;1.03;;
12306;SDS011;6216;51.146;7.008;2024-03-23T16:34:01;1.47;;;0.50;;
12306;SDS011;6216;51.146;7.008;2024-03-23T16:39:24;3.20;;;0.70;;
12306;SDS011;6216;51.146;7.008;2024-03-23T16:44:45;4.17;;;0.70;;
12306;SDS011;6216;51.146;7.008;2024-03-23T16:50:07;2.00;;;1.00;;
12306;SDS011;6216;51.146;7.008;2024-03-23T16:55:30;2.07;;;0.80;;
12306;SDS011;6216;51.146;7.008;2024-03-23T17:00:52;1.17;;;0.80;;
12306;SDS011;6216;51.146;7.008;2024-03-23T17:06:16;6.37;;;1.00;;
12306;SDS011;6216;51.146;7.008;2024-03-23T17:11:40;3.50;;;1.00;;
12306;SDS011;6216;51.146;7.008;2024-03-23T17:17:03;0.97;;;0.70;;
12306;SDS011;6216;51.146;7.008;2024-03-23T17:22:25;1.83;;;1.10;;
12306;SDS011;6216;51.146;7.008;2024-03-23T17:27:49;1.83;;;1.17;;
12306;SDS011;6216;51.146;7.008;2024-03-23T17:33:10;1.17;;;0.83;;
12306;SDS011;6216;51.146;7.008;2024-03-23T17:38:33;1.43;;;0.90;;
12306;SDS011;6216;51.146;7.008;2024-03-23T17:43:56;1.63;;;0.90;;
12306;SDS011;6216;51.146;7.008;2024-03-23T17:49:18;2.73;;;1.47;;
12306;SDS011;6216;51.146;7.008;2024-03-23T17:54:39;3.07;;;2.17;;
12306;SDS011;6216;51.146;7.008;2024-03-23T18:00:02;3.50;;;1.20;;
12306;SDS011;6216;51.146;7.008;2024-03-23T18:05:27;3.53;;;1.30;;
12306;SDS011;6216;51.146;7.008;2024-03-23T18:10:48;1.63;;;0.80;;
12306;SDS011;6216;51.146;7.008;2024-03-23T18:16:11;1.63;;;0.80;;
12306;SDS011;6216;51.146;7.008;2024-03-23T18:21:33;4.70;;;1.23;;
12306;SDS011;6216;51.146;7.008;2024-03-23T18:26:54;1.70;;;1.13;;
12306;SDS011;6216;51.146;7.008;2024-03-23T18:32:18;1.07;;;0.97;;
12306;SDS011;6216;51.146;7.008;2024-03-23T18:37:40;2.57;;;1.37;;
12306;SDS011;6216;51.146;7.008;2024-03-23T18:43:03;2.20;;;1.87;;
12306;SDS011;6216;51.146;7.008;2024-03-23T18:48:26;2.97;;;2.40;;
12306;SDS011;6216;51.146;7.008;2024-03-23T18:53:48;10.73;;;6.30;;
12306;SDS011;6216;51.146;7.008;2024-03-23T18:59:09;9.63;;;6.20;;
12306;SDS011;6216;51.146;7.008;2024-03-23T19:04:33;3.73;;;3.37;;
12306;SDS011;6216;51.146;7.008;2024-03-23T19:09:54;3.57;;;2.47;;
12306;SDS011;6216;51.146;7.008;2024-03-23T19:15:16;4.20;;;2.67;;
12306;SDS011;6216;51.146;7.008;2024-03-23T19:20:39;4.37;;;2.97;;
12306;SDS011;6216;51.146;7.008;2024-03-23T19:26:01;2.70;;;2.43;;
12306;SDS011;6216;51.146;7.008;2024-03-23T19:31:23;3.00;;;2.50;;
12306;SDS011;6216;51.146;7.008;2024-03-23T19:36:48;8.17;;;2.73;;
12306;SDS011;6216;51.146;7.008;2024-03-23T19:42:09;4.43;;;2.00;;
12306;SDS011;6216;51.146;7.008;2024-03-23T19:47:31;3.57;;;2.00;;
12306;SDS011;6216;51.146;7.008;2024-03-23T19:52:54;2.00;;;1.80;;
12306;SDS011;6216;51.146;7.008;2024-03-23T19:58:16;2.57;;;2.00;;
12306;SDS011;6216;51.146;7.008;2024-03-23T20:03:37;2.63;;;2.40;;
12306;SDS011;6216;51.146;7.008;2024-03-23T20:09:00;3.43;;;2.40;;
12306;SDS011;6216;51.146;7.008;2024-03-23T20:14:23;3.83;;;2.00;;
12306;SDS011;6216;51.146;7.008;2024-03-23T20:19:45;2.80;;;2.30;;
12306;SDS011;6216;51.146;7.008;2024-03-23T20:25:09;2.80;;;1.87;;
12306;SDS011;6216;51.146;7.008;2024-03-23T20:30:30;2.10;;;1.90;;
12306;SDS011;6216;51.146;7.008;2024-03-23T20:35:52;3.77;;;2.30;;
12306;SDS011;6216;51.146;7.008;2024-03-23T20:41:15;4.60;;;1.90;;
12306;SDS011;6216;51.146;7.008;2024-03-23T20:46:37;3.97;;;2.77;;
12306;SDS011;6216;51.146;7.008;2024-03-23T20:51:59;3.10;;;2.27;;
12306;SDS011;6216;51.146;7.008;2024-03-23T20:57:22;5.13;;;3.20;;
12306;SDS011;6216;51.146;7.008;2024-03-23T21:02:44;3.63;;;2.60;;
12306;SDS011;6216;51.146;7.008;2024-03-23T21:08:06;5.93;;;4.13;;
12306;SDS011;6216;51.146;7.008;2024-03-23T21:13:30;8.00;;;2.90;;
12306;SDS011;6216;51.146;7.008;2024-03-23T21:18:52;3.37;;;2.70;;
12306;SDS011;6216;51.146;7.008;2024-03-23T21:24:14;6.13;;;3.10;;
12306;SDS011;6216;51.146;7.008;2024-03-23T21:29:38;6.00;;;2.57;;
12306;SDS011;6216;51.146;7.008;2024-03-23T21:35:00;4.10;;;2.57;;
12306;SDS011;6216;51.146;7.008;2024-03-23T21:40:21;4.57;;;1.97;;
12306;SDS011;6216;51.146;7.008;2024-03-23T21:45:53;2.33;;;2.00;;
12306;SDS011;6216;51.146;7.008;2024-03-23T21:51:14;5.33;;;1.80;;
12306;SDS011;6216;51.146;7.008;2024-03-23T21:56:38;6.03;;;1.90;;
12306;SDS011;6216;51.146;7.008;2024-03-23T22:02:01;5.37;;;1.80;;
12306;SDS011;6216;51.146;7.008;2024-03-23T22:07:23;3.13;;;1.60;;
12306;SDS011;6216;51.146;7.008;2024-03-23T22:12:46;3.67;;;1.90;;
12306;SDS011;6216;51.146;7.008;2024-03-23T22:18:09;4.67;;;1.63;;
12306;SDS011;6216;51.146;7.008;2024-03-23T22:23:31;2.10;;;1.80;;
12306;SDS011;6216;51.146;7.008;2024-03-23T22:28:53;5.83;;;2.43;;
12306;SDS011;6216;51.146;7.008;2024-03-23T22:34:15;3.97;;;2.33;;
12306;SDS011;6216;51.146;7.008;2024-03-23T22:39:38;3.80;;;1.90;;
12306;SDS011;6216;51.146;7.008;2024-03-23T22:44:59;4.87;;;2.30;;
12306;SDS011;6216;51.146;7.008;2024-03-23T22:50:22;6.60;;;1.97;;
12306;SDS011;6216;51.146;7.008;2024-03-23T22:55:44;2.20;;;2.00;;
12306;SDS011;6216;51.146;7.008;2024-03-23T23:01:06;3.90;;;1.67;;
12306;SDS011;6216;51.146;7.008;2024-03-23T23:06:29;2.43;;;1.50;;
12306;SDS011;6216;51.146;7.008;2024-03-23T23:11:51;5.77;;;1.80;;
12306;SDS011;6216;51.146;7.008;2024-03-23T23:17:12;3.50;;;1.77;;
12306;SDS011;6216;51.146;7.008;2024-03-23T23:22:35;3.10;;;1.40;;
12306;SDS011;6216;51.146;7.008;2024-03-23T23:27:57;4.77;;;1.63;;
12306;SDS011;6216;51.146;7.008;2024-03-23T23:33:19;2.70;;;1.60;;
12306;SDS011;6216;51.146;7.008;2024-03-23T23:38:46;2.40;;;1.50;;
12306;SDS011;6216;51.146;7.008;2024-03-23T23:44:08;2.33;;;1.27;;
12306;SDS011;6216;51.146;7.008;2024-03-23T23:49:30;3.73;;;2.00;;
12306;SDS011;6216;51.146;7.008;2024-03-23T23:54:53;2.07;;;1.40;;
